KMHT/MHT METAR and TAF weather

Enter ICAO airport designator
Station Type Date Time Source
KMHT METAR 2019/12/11 11:53 UTC NOAA

KMHT 111153Z 17004KT 10SM FEW038 OVC110 M01/M04 A3015 RMK AO2 SNE1058 SLP227 4/001 P0000 60002 70014 T10111039 10017 21011 53013


Station Type Date Time Source
KMHT Decoded METAR 2019/12/11 11:53 UTC NOAA

MANCHESTER AIRPORT, NH, United States (KMHT) 42-56N 071-26W 81M
Dec 11, 2019 - 06:53 AM EST / 2019.12.11 1153 UTC
Wind: from the S (170 degrees) at 5 MPH (4 KT):0
Visibility: 10 mile(s):0
Sky conditions: overcast
Weather: 1 inches of snow on ground
Precipitation last hour: A trace
Temperature: 30.0 F (-1.1 C)
Windchill: 24 F (-4 C):1
Dew Point: 25.0 F (-3.9 C)
Relative Humidity: 81%
Pressure (altimeter): 30.15 in. Hg (1020 hPa)
Pressure tendency: 0.04 inches (1.3 hPa) higher than three hours ago
ob: KMHT 111153Z 17004KT 10SM FEW038 OVC110 M01/M04 A3015 RMK AO2 SNE1058 SLP227 4/001 P0000 60002 70014 T10111039 10017 21011 53013
cycle: 12

Station Type Date Time Source
KMHT TAF 2019/12/11 12:22 UTC NOAA

TAF KMHT 111120Z 1112/1212 29007KT P6SM OVC035
FM111900 29006KT P6SM BKN250
FM120500 28010G20KT P6SM SKC
FM120900 29010KT P6SM SKC

Example: see airport list